Karin Schepers — V2HS3 — position and weather

sailwx.info

Track history (hours):
 
Tides and Currents Weather Stations Pressure Air Temp Water Temp Dewpoint Dewpoint Depression Visibility Wind Speed Wind Dir Waves Ship Positions

Karin Schepers

Last reported at 2018-Feb-20 20:14 UTC. Time now 2018-Feb-21 17:30 UTC.
Position N 50°10' W 006°00'.

Length 141 m; draft 7.5 m.

Type: Ship (hazmat cat A). MMSI: 305148000.

Date/timePositionNaut miles runAvg speedWind from/ knotsBaromVisibWave heightAir tempDewpointWater temp
2018-Feb-20 20:14N 50°10' W 006°00'615.2
2018-Feb-20 19:50N 50°16' W 006°00'514.9
2018-Feb-20 19:30N 50°21' W 005°60'1115.1
2018-Feb-20 18:46N 50°32' W 005°60'415.7
2018-Feb-20 18:30N 50°37' W 005°60'1215.8
2018-Feb-20 17:42N 50°49' W 005°60'12016.7
2018-Feb-20 10:32N 52°49' W 005°52'114.5
2018-Feb-20 10:28N 52°49' W 005°52'714.6
2018-Feb-20 10:01N 52°56' W 005°53'815.3
2018-Feb-20 09:31N 53°04' W 005°56'816.8
2018-Feb-20 09:00N 53°12' W 005°59'714.6
2018-Feb-20 08:30N 53°19' W 006°03'1 1.5
2018-Feb-20 07:58N 53°19' W 006°04'1 2.1
2018-Feb-20 07:31N 53°20' W 006°06'3 5.6
2018-Feb-20 07:00N 53°21' W 006°10'2 1.9
2018-Feb-20 06:11N 53°21' W 006°13'0 0.0
2018-Feb-20 05:59N 53°21' W 006°13'0 0.0
2018-Feb-20 05:29N 53°21' W 006°13'0 0.0
2018-Feb-20 04:59N 53°21' W 006°13'0 0.0
2018-Feb-20 04:29N 53°21' W 006°13'0 0.0
2018-Feb-20 03:38N 53°21' W 006°13'0 0.0
2018-Feb-20 03:29N 53°21' W 006°13'0 0.0
2018-Feb-20 02:44N 53°21' W 006°13'0 0.0
2018-Feb-20 02:08N 53°21' W 006°13'0 0.0
2018-Feb-20 01:59N 53°21' W 006°13'0 0.0
2018-Feb-20 01:29N 53°21' W 006°13'0 0.0
2018-Feb-20 00:59N 53°21' W 006°13'0 0.0
2018-Feb-20 00:29N 53°21' W 006°13'0 0.0
2018-Feb-19 23:44N 53°21' W 006°13'0 0.0
2018-Feb-19 23:17N 53°21' W 006°13'0 0.0
2018-Feb-19 22:44N 53°21' W 006°13'0 0.0
2018-Feb-19 22:17N 53°21' W 006°13'0 0.0
2018-Feb-19 21:44N 53°21' W 006°13'0 0.0
2018-Feb-19 21:11N 53°21' W 006°13'0 0.0
2018-Feb-19 20:59N 53°21' W 006°13'0 0.0
2018-Feb-19 20:29N 53°21' W 006°13'0 0.0
2018-Feb-19 19:59N 53°21' W 006°13'0 0.0
2018-Feb-19 19:29N 53°21' W 006°13'0 0.0
2018-Feb-19 18:59N 53°21' W 006°13'0 0.0
2018-Feb-19 18:26N 53°21' W 006°13'0 0.0
2018-Feb-19 17:53N 53°21' W 006°13'0 0.0
2018-Feb-19 17:20N 53°21' W 006°13'0 0.0
2018-Feb-19 16:50N 53°21' W 006°13'0 0.0
2018-Feb-19 16:20N 53°21' W 006°13'0 0.0
2018-Feb-19 15:53N 53°21' W 006°13'0 0.0
2018-Feb-19 15:23N 53°21' W 006°13'0 0.0
2018-Feb-19 14:56N 53°21' W 006°13'0 0.0
2018-Feb-19 14:20N 53°21' W 006°13'0 0.0
2018-Feb-19 13:56N 53°21' W 006°13'0 0.0
2018-Feb-19 13:23N 53°21' W 006°13'0 0.0
2018-Feb-19 12:53N 53°21' W 006°13'0 0.0
2018-Feb-19 12:26N 53°21' W 006°13'0 0.0
2018-Feb-19 11:56N 53°21' W 006°13'0 0.0
2018-Feb-19 11:29N 53°21' W 006°13'0 0.0
2018-Feb-19 10:59N 53°21' W 006°13'0 0.0
2018-Feb-19 10:29N 53°21' W 006°13'0 0.0
2018-Feb-19 09:59N 53°21' W 006°13'0 0.0
2018-Feb-19 09:29N 53°21' W 006°13'0 0.0
2018-Feb-19 08:59N 53°21' W 006°13'0 0.0
2018-Feb-19 08:23N 53°21' W 006°13'0 0.0
2018-Feb-19 07:59N 53°21' W 006°13'0 0.0
2018-Feb-19 07:29N 53°21' W 006°13'0 0.0
2018-Feb-19 06:59N 53°21' W 006°13'0 0.0
2018-Feb-19 06:29N 53°21' W 006°13'0 0.0
2018-Feb-19 05:59N 53°21' W 006°13'0 0.0
2018-Feb-19 05:29N 53°21' W 006°13'0 0.0
2018-Feb-19 04:56N 53°21' W 006°13'0 0.0
2018-Feb-19 04:29N 53°21' W 006°13'0 0.0
2018-Feb-19 03:53N 53°21' W 006°13'0 0.0
2018-Feb-19 03:29N 53°21' W 006°13'0 0.0
2018-Feb-19 02:56N 53°21' W 006°13'0 0.0
2018-Feb-19 02:20N 53°21' W 006°13'0 0.0
2018-Feb-19 01:53N 53°21' W 006°13'0 0.0
2018-Feb-19 01:26N 53°21' W 006°13'0 0.0
2018-Feb-19 00:59N 53°21' W 006°13'0 0.0
2018-Feb-19 00:30N 53°21' W 006°13'2 4.3
2018-Feb-19 00:00N 53°21' W 006°09'5 9.1
2018-Feb-18 23:30N 53°19' W 006°02'510.1
2018-Feb-18 23:00N 53°14' W 005°60'612.0
2018-Feb-18 22:30N 53°08' W 005°57'611.3
2018-Feb-18 22:01N 53°02' W 005°55'612.5
2018-Feb-18 21:30N 52°56' W 005°53'612.6
2018-Feb-18 21:00N 52°50' W 005°52'915.7
2018-Feb-18 20:24N 52°41' W 005°52'615.5
2018-Feb-18 20:00N 52°34' W 005°51'815.8
2018-Feb-18 19:30N 52°27' W 005°50'815.5
2018-Feb-18 19:00N 52°19' W 005°49'815.8
2018-Feb-18 18:30N 52°11' W 005°49'816.1
2018-Feb-18 18:00N 52°03' W 005°47'5515.5
2018-Feb-18 14:29N 51°09' W 005°51'915.6
2018-Feb-18 13:52N 50°59' W 005°52'615.7
2018-Feb-18 13:31N 50°53' W 005°52'815.6
2018-Feb-18 12:58N 50°45' W 005°52'716.1
2018-Feb-18 12:30N 50°38' W 005°53'816.0
2018-Feb-18 12:00N 50°30' W 005°53'815.9
2018-Feb-18 11:30N 50°22' W 005°54'815.6
2018-Feb-18 11:00N 50°14' W 005°55'915.3
2018-Feb-18 10:26N 50°05' W 005°54'615.0
2018-Feb-18 10:00N 49°59' W 005°54'38615.7
2018-Feb-17 09:26N 43°47' W 003°20'715.9
2018-Feb-17 09:00N 43°41' W 003°16'1015.9
2018-Feb-17 08:24N 43°32' W 003°11'616.1
2018-Feb-17 08:00N 43°27' W 003°07'612.4
2018-Feb-17 07:30N 43°21' W 003°03'1 1.2
2018-Feb-17 07:00N 43°21' W 003°03'0 0.0
2018-Feb-17 06:30N 43°21' W 003°03'0 0.0
2018-Feb-17 06:00N 43°21' W 003°03'0 0.0
2018-Feb-17 05:27N 43°21' W 003°03'0 0.0
2018-Feb-17 05:00N 43°21' W 003°03'0 0.0
2018-Feb-17 04:27N 43°21' W 003°03'0 0.0
2018-Feb-17 04:00N 43°21' W 003°03'0 0.0
2018-Feb-17 03:30N 43°21' W 003°03'0 0.0
2018-Feb-17 03:00N 43°21' W 003°03'0 0.0
2018-Feb-17 02:27N 43°21' W 003°03'0 0.0
2018-Feb-17 02:00N 43°21' W 003°03'0 0.0
2018-Feb-17 01:30N 43°21' W 003°03'0 0.0
2018-Feb-17 01:00N 43°21' W 003°03'0 0.0
2018-Feb-17 00:30N 43°21' W 003°03'0 0.0
2018-Feb-17 00:00N 43°21' W 003°03'0 0.0
2018-Feb-16 23:30N 43°21' W 003°03'0 0.0
2018-Feb-16 23:00N 43°21' W 003°03'0 0.0
2018-Feb-16 22:30N 43°21' W 003°03'0 0.0
2018-Feb-16 22:00N 43°21' W 003°03'0 0.0
2018-Feb-16 21:30N 43°21' W 003°03'0 0.0
2018-Feb-16 21:00N 43°21' W 003°03'0 0.0
2018-Feb-16 20:30N 43°21' W 003°03'0 0.0
2018-Feb-16 20:00N 43°21' W 003°03'0 0.0
2018-Feb-16 19:30N 43°21' W 003°03'0 0.0
2018-Feb-16 19:00N 43°21' W 003°03'0 0.0
2018-Feb-16 18:30N 43°21' W 003°03'0 0.0
2018-Feb-16 18:00N 43°21' W 003°03'0 0.0
2018-Feb-16 17:30N 43°21' W 003°03'0 0.0
2018-Feb-16 17:00N 43°21' W 003°03'0 0.0
2018-Feb-16 16:24N 43°21' W 003°03'0 0.0
2018-Feb-16 16:00N 43°21' W 003°03'0 0.0
2018-Feb-16 15:30N 43°21' W 003°03'0 0.0
2018-Feb-16 14:57N 43°21' W 003°03'0 0.0
2018-Feb-16 14:30N 43°21' W 003°03'0 0.0
2018-Feb-16 14:00N 43°21' W 003°03'0 0.0
2018-Feb-16 13:30N 43°21' W 003°03'0 0.0
2018-Feb-16 13:00N 43°21' W 003°03'0 0.0
2018-Feb-16 12:30N 43°21' W 003°03'0 0.0
2018-Feb-16 12:00N 43°21' W 003°03'0 0.0
2018-Feb-16 11:30N 43°21' W 003°03'0 0.0
2018-Feb-16 11:00N 43°21' W 003°03'0 0.0
2018-Feb-16 10:30N 43°21' W 003°03'0 0.0
2018-Feb-16 10:00N 43°21' W 003°03'0 0.0
2018-Feb-16 09:30N 43°21' W 003°03'0 0.0
2018-Feb-16 09:00N 43°21' W 003°03'0 0.0
2018-Feb-16 08:27N 43°21' W 003°03'0 0.0
2018-Feb-16 08:00N 43°21' W 003°03'0 0.0
2018-Feb-16 07:30N 43°21' W 003°03'0 0.0
2018-Feb-16 06:57N 43°21' W 003°03'0 0.0
2018-Feb-16 06:30N 43°21' W 003°03'0 0.0
2018-Feb-16 05:57N 43°21' W 003°03'0 0.0
2018-Feb-16 05:30N 43°21' W 003°03'0 0.0
2018-Feb-16 04:54N 43°21' W 003°03'0 0.0
2018-Feb-16 04:30N 43°21' W 003°03'0 0.0
2018-Feb-16 04:00N 43°21' W 003°03'0 0.0
2018-Feb-16 03:30N 43°21' W 003°03'0 0.0
2018-Feb-16 03:00N 43°21' W 003°03'0 0.0
2018-Feb-16 02:30N 43°21' W 003°03'0 0.0
2018-Feb-16 02:00N 43°21' W 003°03'0 0.0
2018-Feb-16 01:30N 43°21' W 003°03'0 0.0
2018-Feb-16 00:57N 43°21' W 003°03'0 0.0
2018-Feb-16 00:24N 43°21' W 003°03'0 0.0
2018-Feb-16 00:00N 43°21' W 003°03'0 0.0
2018-Feb-15 23:30N 43°21' W 003°03'0 0.0
2018-Feb-15 23:00N 43°21' W 003°03'0 0.0
2018-Feb-15 22:30N 43°21' W 003°03'0 0.0
2018-Feb-15 22:00N 43°21' W 003°03'0 0.0
2018-Feb-15 21:30N 43°21' W 003°03'0 0.0
2018-Feb-15 21:00N 43°21' W 003°03'0 0.0
2018-Feb-15 20:30N 43°21' W 003°03'0 0.0
2018-Feb-15 20:00N 43°21' W 003°03'0 0.0
2018-Feb-15 19:27N 43°21' W 003°03'0 0.0
2018-Feb-15 18:57N 43°21' W 003°03'0 0.0
2018-Feb-15 18:27N 43°21' W 003°03'0 0.0
2018-Feb-15 18:00N 43°21' W 003°03'0 0.0
2018-Feb-15 17:24N 43°21' W 003°03'0 0.0
2018-Feb-15 17:00N 43°21' W 003°03'0 0.0
2018-Feb-15 16:30N 43°21' W 003°03'0 0.0
2018-Feb-15 16:00N 43°21' W 003°03'0 0.0
2018-Feb-15 15:27N 43°21' W 003°03'0 0.0
2018-Feb-15 14:57N 43°21' W 003°03'0 0.0
2018-Feb-15 14:27N 43°21' W 003°03'0 0.0
2018-Feb-15 13:48N 43°21' W 003°03'0 0.0
2018-Feb-15 13:27N 43°21' W 003°03'0 0.0
2018-Feb-15 13:00N 43°21' W 003°03'0 0.0
2018-Feb-15 12:27N 43°21' W 003°03'0 0.0
2018-Feb-15 11:54N 43°21' W 003°03'0 0.0
2018-Feb-15 11:27N 43°21' W 003°03'0 0.0
2018-Feb-15 11:00N 43°21' W 003°03'0 0.0
2018-Feb-15 10:30N 43°21' W 003°03'0 0.0
2018-Feb-15 10:00N 43°21' W 003°03'0 0.0
2018-Feb-15 09:30N 43°21' W 003°03'0 0.0
2018-Feb-15 09:00N 43°21' W 003°03'0 0.0
2018-Feb-15 08:30N 43°21' W 003°03'0 0.0
2018-Feb-15 08:00N 43°21' W 003°03'0 0.0
2018-Feb-15 07:30N 43°21' W 003°03'0 0.0
2018-Feb-15 07:00N 43°21' W 003°03'0 0.0
2018-Feb-15 06:30N 43°21' W 003°03'0 0.0
2018-Feb-15 06:00N 43°21' W 003°03'1 1.5
2018-Feb-15 05:30N 43°21' W 003°03'3 6.6
2018-Feb-15 05:00N 43°24' W 003°06'510.0
2018-Feb-15 04:30N 43°28' W 003°08'611.4
2018-Feb-15 03:59N 43°34' W 003°12'612.1
2018-Feb-15 03:30N 43°39' W 003°15'611.6
2018-Feb-15 03:00N 43°45' W 003°18'39012.1
2018-Feb-13 18:55N 49°58' W 005°60'1317.9
2018-Feb-13 18:10N 50°11' W 005°60'417.6
2018-Feb-13 17:58N 50°15' W 006°00'817.2
2018-Feb-13 17:30N 50°23' W 005°60'916.9
2018-Feb-13 16:59N 50°32' W 005°59'916.8
2018-Feb-13 16:29N 50°40' W 005°59'916.7
2018-Feb-13 15:58N 50°49' W 005°59'6717.6
2018-Feb-13 12:11N 51°55' W 005°54'419.7
2018-Feb-13 11:59N 51°59' W 005°54'1019.7
2018-Feb-13 11:30N 52°09' W 005°53'1019.8
2018-Feb-13 11:00N 52°19' W 005°52'1019.4
2018-Feb-13 10:30N 52°28' W 005°51'917.4
2018-Feb-13 10:00N 52°37' W 005°51'816.4
2018-Feb-13 09:30N 52°45' W 005°52'816.9
2018-Feb-13 09:00N 52°54' W 005°53'816.4
2018-Feb-13 08:30N 53°02' W 005°55'816.2
2018-Feb-13 08:00N 53°10' W 005°58'816.3
2018-Feb-13 07:30N 53°17' W 006°02'611.9
2018-Feb-13 07:00N 53°21' W 006°10'1 1.6
2018-Feb-13 06:11N 53°21' W 006°13'0 0.0
2018-Feb-13 05:59N 53°21' W 006°13'0 0.0
2018-Feb-13 05:29N 53°21' W 006°13'0 0.0
2018-Feb-13 04:59N 53°21' W 006°13'0 0.0
2018-Feb-13 04:29N 53°21' W 006°13'0 0.0
2018-Feb-13 03:59N 53°21' W 006°13'0 0.0
2018-Feb-13 03:26N 53°21' W 006°13'0 0.0
2018-Feb-13 02:53N 53°21' W 006°13'0 0.0
2018-Feb-13 02:20N 53°21' W 006°13'0 0.0
2018-Feb-13 01:47N 53°21' W 006°13'0 0.0
2018-Feb-13 01:11N 53°21' W 006°13'0 0.0
2018-Feb-13 00:59N 53°21' W 006°13'0 0.0
2018-Feb-13 00:29N 53°21' W 006°13'0 0.0
2018-Feb-12 23:56N 53°21' W 006°13'0 0.0
2018-Feb-12 23:29N 53°21' W 006°13'0 0.0
2018-Feb-12 22:53N 53°21' W 006°13'0 0.0
2018-Feb-12 22:17N 53°21' W 006°13'0 0.0
2018-Feb-12 21:47N 53°21' W 006°13'0 0.0
2018-Feb-12 21:14N 53°21' W 006°13'0 0.0
2018-Feb-12 20:41N 53°21' W 006°13'0 0.0
2018-Feb-12 20:29N 53°21' W 006°13'0 0.0
2018-Feb-12 19:59N 53°21' W 006°13'0 0.0
2018-Feb-12 19:29N 53°21' W 006°13'0 0.0
2018-Feb-12 18:59N 53°21' W 006°13'0 0.0
2018-Feb-12 18:26N 53°21' W 006°13'0 0.0
2018-Feb-12 17:50N 53°21' W 006°13'0 0.0
2018-Feb-12 17:14N 53°21' W 006°13'0 0.0
2018-Feb-12 16:59N 53°21' W 006°13'0 0.0
2018-Feb-12 16:29N 53°21' W 006°13'0 0.0
2018-Feb-12 15:59N 53°21' W 006°13'0 0.0
2018-Feb-12 15:17N 53°21' W 006°13'0 0.0
2018-Feb-12 14:56N 53°21' W 006°13'0 0.0
2018-Feb-12 14:23N 53°21' W 006°13'0 0.0
2018-Feb-12 13:47N 53°21' W 006°13'0 0.0
2018-Feb-12 13:14N 53°21' W 006°13'0 0.1
2018-Feb-12 12:59N 53°21' W 006°13'0 0.0
2018-Feb-12 12:29N 53°21' W 006°13'0 0.0
2018-Feb-12 11:59N 53°21' W 006°13'0 0.0
2018-Feb-12 11:29N 53°21' W 006°13'0 0.0
2018-Feb-12 10:53N 53°21' W 006°13'0 0.0
2018-Feb-12 10:17N 53°21' W 006°13'0 0.0
2018-Feb-12 09:41N 53°21' W 006°13'0 0.0
2018-Feb-12 09:29N 53°21' W 006°13'0 0.0
2018-Feb-12 08:59N 53°21' W 006°13'0 0.0
2018-Feb-12 08:29N 53°21' W 006°13'0 0.0
2018-Feb-12 07:56N 53°21' W 006°13'0 0.0
2018-Feb-12 07:23N 53°21' W 006°13'0 0.0
2018-Feb-12 07:00N 53°21' W 006°13'0 0.5
2018-Feb-12 06:30N 53°21' W 006°12'510.3
2018-Feb-12 06:00N 53°20' W 006°04'612.1
2018-Feb-12 05:31N 53°14' W 005°60'815.9
2018-Feb-12 05:00N 53°06' W 005°57'816.8
2018-Feb-12 04:30N 52°58' W 005°54'916.8
2018-Feb-12 04:00N 52°50' W 005°52'917.0
2018-Feb-12 03:29N 52°41' W 005°52'817.2
2018-Feb-12 03:00N 52°33' W 005°51'916.7
2018-Feb-12 02:30N 52°24' W 005°50'816.3
2018-Feb-12 02:00N 52°16' W 005°49'815.8
2018-Feb-12 01:30N 52°08' W 005°48'3715.3
2018-Feb-11 23:06N 51°32' W 005°51'2915.7
2018-Feb-11 21:16N 51°03' W 005°52'515.7
2018-Feb-11 20:59N 50°58' W 005°52'815.6
2018-Feb-11 20:30N 50°51' W 005°53'815.4
2018-Feb-11 20:00N 50°43' W 005°53'815.3
2018-Feb-11 19:31N 50°36' W 005°53'815.3
2018-Feb-11 19:00N 50°28' W 005°53'815.6
2018-Feb-11 18:30N 50°20' W 005°53'815.3
2018-Feb-11 18:00N 50°12' W 005°53'814.9
2018-Feb-11 17:27N 50°04' W 005°52'7211.5
2018-Feb-11 11:10N 48°55' W 005°21'212.0
2018-Feb-11 10:58N 48°53' W 005°20'613.1
2018-Feb-11 10:30N 48°49' W 005°27'816.2
2018-Feb-11 10:00N 48°45' W 005°38'813.9
2018-Feb-11 09:27N 48°38' W 005°43'612.6
2018-Feb-11 08:57N 48°31' W 005°42'612.1
2018-Feb-11 08:29N 48°26' W 005°39'612.1
2018-Feb-11 07:59N 48°21' W 005°35'812.0
2018-Feb-11 07:18N 48°13' W 005°30'412.1
2018-Feb-11 06:56N 48°09' W 005°27'511.2
2018-Feb-11 06:30N 48°05' W 005°23'6 9.7
2018-Feb-11 05:51N 47°60' W 005°18'4 9.7
2018-Feb-11 05:29N 47°57' W 005°14'5 9.8
2018-Feb-11 04:59N 47°54' W 005°09'5 9.6
2018-Feb-11 04:30N 47°51' W 005°04'5 9.5
2018-Feb-11 04:01N 47°48' W 004°59'5 9.7
2018-Feb-11 03:30N 47°44' W 004°53'510.1
2018-Feb-11 03:00N 47°41' W 004°47'812.4
2018-Feb-11 02:20N 47°35' W 004°39'512.4
2018-Feb-11 01:54N 47°32' W 004°33'512.6
2018-Feb-11 01:28N 47°28' W 004°27'  
Track history (hours):
 
Tides and Currents Weather Stations Pressure Air Temp Water Temp Dewpoint Dewpoint Depression Visibility Wind Speed Wind Dir Waves Ship Positions

Karin Schepers

Last reported at 2018-Feb-20 20:14 UTC. Time now 2018-Feb-21 17:30 UTC.
Position N 50°10' W 006°00'.

Length 141 m; draft 7.5 m.

Type: Ship (hazmat cat A). MMSI: 305148000.

Date/timePositionNaut miles runAvg speedWind from/ knotsBaromVisibWave heightAir tempDewpointWater temp
2018-Feb-20 20:14N 50°10' W 006°00'615.2
2018-Feb-20 19:50N 50°16' W 006°00'514.9
2018-Feb-20 19:30N 50°21' W 005°60'1115.1
2018-Feb-20 18:46N 50°32' W 005°60'415.7
2018-Feb-20 18:30N 50°37' W 005°60'1215.8
2018-Feb-20 17:42N 50°49' W 005°60'12016.7
2018-Feb-20 10:32N 52°49' W 005°52'114.5
2018-Feb-20 10:28N 52°49' W 005°52'714.6
2018-Feb-20 10:01N 52°56' W 005°53'815.3
2018-Feb-20 09:31N 53°04' W 005°56'816.8
2018-Feb-20 09:00N 53°12' W 005°59'714.6
2018-Feb-20 08:30N 53°19' W 006°03'1 1.5
2018-Feb-20 07:58N 53°19' W 006°04'1 2.1
2018-Feb-20 07:31N 53°20' W 006°06'3 5.6
2018-Feb-20 07:00N 53°21' W 006°10'2 1.9
2018-Feb-20 06:11N 53°21' W 006°13'0 0.0
2018-Feb-20 05:59N 53°21' W 006°13'0 0.0
2018-Feb-20 05:29N 53°21' W 006°13'0 0.0
2018-Feb-20 04:59N 53°21' W 006°13'0 0.0
2018-Feb-20 04:29N 53°21' W 006°13'0 0.0
2018-Feb-20 03:38N 53°21' W 006°13'0 0.0
2018-Feb-20 03:29N 53°21' W 006°13'0 0.0
2018-Feb-20 02:44N 53°21' W 006°13'0 0.0
2018-Feb-20 02:08N 53°21' W 006°13'0 0.0
2018-Feb-20 01:59N 53°21' W 006°13'0 0.0
2018-Feb-20 01:29N 53°21' W 006°13'0 0.0
2018-Feb-20 00:59N 53°21' W 006°13'0 0.0
2018-Feb-20 00:29N 53°21' W 006°13'0 0.0
2018-Feb-19 23:44N 53°21' W 006°13'0 0.0
2018-Feb-19 23:17N 53°21' W 006°13'0 0.0
2018-Feb-19 22:44N 53°21' W 006°13'0 0.0
2018-Feb-19 22:17N 53°21' W 006°13'0 0.0
2018-Feb-19 21:44N 53°21' W 006°13'0 0.0
2018-Feb-19 21:11N 53°21' W 006°13'0 0.0
2018-Feb-19 20:59N 53°21' W 006°13'0 0.0
2018-Feb-19 20:29N 53°21' W 006°13'0 0.0
2018-Feb-19 19:59N 53°21' W 006°13'0 0.0
2018-Feb-19 19:29N 53°21' W 006°13'0 0.0
2018-Feb-19 18:59N 53°21' W 006°13'0 0.0
2018-Feb-19 18:26N 53°21' W 006°13'0 0.0
2018-Feb-19 17:53N 53°21' W 006°13'0 0.0
2018-Feb-19 17:20N 53°21' W 006°13'0 0.0
2018-Feb-19 16:50N 53°21' W 006°13'0 0.0
2018-Feb-19 16:20N 53°21' W 006°13'0 0.0
2018-Feb-19 15:53N 53°21' W 006°13'0 0.0
2018-Feb-19 15:23N 53°21' W 006°13'0 0.0
2018-Feb-19 14:56N 53°21' W 006°13'0 0.0
2018-Feb-19 14:20N 53°21' W 006°13'0 0.0
2018-Feb-19 13:56N 53°21' W 006°13'0 0.0
2018-Feb-19 13:23N 53°21' W 006°13'0 0.0
2018-Feb-19 12:53N 53°21' W 006°13'0 0.0
2018-Feb-19 12:26N 53°21' W 006°13'0 0.0
2018-Feb-19 11:56N 53°21' W 006°13'0 0.0
2018-Feb-19 11:29N 53°21' W 006°13'0 0.0
2018-Feb-19 10:59N 53°21' W 006°13'0 0.0
2018-Feb-19 10:29N 53°21' W 006°13'0 0.0
2018-Feb-19 09:59N 53°21' W 006°13'0 0.0
2018-Feb-19 09:29N 53°21' W 006°13'0 0.0
2018-Feb-19 08:59N 53°21' W 006°13'0 0.0
2018-Feb-19 08:23N 53°21' W 006°13'0 0.0
2018-Feb-19 07:59N 53°21' W 006°13'0 0.0
2018-Feb-19 07:29N 53°21' W 006°13'0 0.0
2018-Feb-19 06:59N 53°21' W 006°13'0 0.0
2018-Feb-19 06:29N 53°21' W 006°13'0 0.0
2018-Feb-19 05:59N 53°21' W 006°13'0 0.0
2018-Feb-19 05:29N 53°21' W 006°13'0 0.0
2018-Feb-19 04:56N 53°21' W 006°13'0 0.0
2018-Feb-19 04:29N 53°21' W 006°13'0 0.0
2018-Feb-19 03:53N 53°21' W 006°13'0 0.0
2018-Feb-19 03:29N 53°21' W 006°13'0 0.0
2018-Feb-19 02:56N 53°21' W 006°13'0 0.0
2018-Feb-19 02:20N 53°21' W 006°13'0 0.0
2018-Feb-19 01:53N 53°21' W 006°13'0 0.0
2018-Feb-19 01:26N 53°21' W 006°13'0 0.0
2018-Feb-19 00:59N 53°21' W 006°13'0 0.0
2018-Feb-19 00:30N 53°21' W 006°13'2 4.3
2018-Feb-19 00:00N 53°21' W 006°09'5 9.1
2018-Feb-18 23:30N 53°19' W 006°02'510.1
2018-Feb-18 23:00N 53°14' W 005°60'612.0
2018-Feb-18 22:30N 53°08' W 005°57'611.3
2018-Feb-18 22:01N 53°02' W 005°55'612.5
2018-Feb-18 21:30N 52°56' W 005°53'612.6
2018-Feb-18 21:00N 52°50' W 005°52'915.7
2018-Feb-18 20:24N 52°41' W 005°52'615.5
2018-Feb-18 20:00N 52°34' W 005°51'815.8
2018-Feb-18 19:30N 52°27' W 005°50'815.5
2018-Feb-18 19:00N 52°19' W 005°49'815.8
2018-Feb-18 18:30N 52°11' W 005°49'816.1
2018-Feb-18 18:00N 52°03' W 005°47'5515.5
2018-Feb-18 14:29N 51°09' W 005°51'915.6
2018-Feb-18 13:52N 50°59' W 005°52'615.7
2018-Feb-18 13:31N 50°53' W 005°52'815.6
2018-Feb-18 12:58N 50°45' W 005°52'716.1
2018-Feb-18 12:30N 50°38' W 005°53'816.0
2018-Feb-18 12:00N 50°30' W 005°53'815.9
2018-Feb-18 11:30N 50°22' W 005°54'815.6
2018-Feb-18 11:00N 50°14' W 005°55'915.3
2018-Feb-18 10:26N 50°05' W 005°54'615.0
2018-Feb-18 10:00N 49°59' W 005°54'38615.7
2018-Feb-17 09:26N 43°47' W 003°20'715.9
2018-Feb-17 09:00N 43°41' W 003°16'1015.9
2018-Feb-17 08:24N 43°32' W 003°11'616.1
2018-Feb-17 08:00N 43°27' W 003°07'612.4
2018-Feb-17 07:30N 43°21' W 003°03'1 1.2
2018-Feb-17 07:00N 43°21' W 003°03'0 0.0
2018-Feb-17 06:30N 43°21' W 003°03'0 0.0
2018-Feb-17 06:00N 43°21' W 003°03'0 0.0
2018-Feb-17 05:27N 43°21' W 003°03'0 0.0
2018-Feb-17 05:00N 43°21' W 003°03'0 0.0
2018-Feb-17 04:27N 43°21' W 003°03'0 0.0
2018-Feb-17 04:00N 43°21' W 003°03'0 0.0
2018-Feb-17 03:30N 43°21' W 003°03'0 0.0
2018-Feb-17 03:00N 43°21' W 003°03'0 0.0
2018-Feb-17 02:27N 43°21' W 003°03'0 0.0
2018-Feb-17 02:00N 43°21' W 003°03'0 0.0
2018-Feb-17 01:30N 43°21' W 003°03'0 0.0
2018-Feb-17 01:00N 43°21' W 003°03'0 0.0
2018-Feb-17 00:30N 43°21' W 003°03'0 0.0
2018-Feb-17 00:00N 43°21' W 003°03'0 0.0
2018-Feb-16 23:30N 43°21' W 003°03'0 0.0
2018-Feb-16 23:00N 43°21' W 003°03'0 0.0
2018-Feb-16 22:30N 43°21' W 003°03'0 0.0
2018-Feb-16 22:00N 43°21' W 003°03'0 0.0
2018-Feb-16 21:30N 43°21' W 003°03'0 0.0
2018-Feb-16 21:00N 43°21' W 003°03'0 0.0
2018-Feb-16 20:30N 43°21' W 003°03'0 0.0
2018-Feb-16 20:00N 43°21' W 003°03'0 0.0
2018-Feb-16 19:30N 43°21' W 003°03'0 0.0
2018-Feb-16 19:00N 43°21' W 003°03'0 0.0
2018-Feb-16 18:30N 43°21' W 003°03'0 0.0
2018-Feb-16 18:00N 43°21' W 003°03'0 0.0
2018-Feb-16 17:30N 43°21' W 003°03'0 0.0
2018-Feb-16 17:00N 43°21' W 003°03'0 0.0
2018-Feb-16 16:24N 43°21' W 003°03'0 0.0
2018-Feb-16 16:00N 43°21' W 003°03'0 0.0
2018-Feb-16 15:30N 43°21' W 003°03'0 0.0
2018-Feb-16 14:57N 43°21' W 003°03'0 0.0
2018-Feb-16 14:30N 43°21' W 003°03'0 0.0
2018-Feb-16 14:00N 43°21' W 003°03'0 0.0
2018-Feb-16 13:30N 43°21' W 003°03'0 0.0
2018-Feb-16 13:00N 43°21' W 003°03'0 0.0
2018-Feb-16 12:30N 43°21' W 003°03'0 0.0
2018-Feb-16 12:00N 43°21' W 003°03'0 0.0
2018-Feb-16 11:30N 43°21' W 003°03'0 0.0
2018-Feb-16 11:00N 43°21' W 003°03'0 0.0
2018-Feb-16 10:30N 43°21' W 003°03'0 0.0
2018-Feb-16 10:00N 43°21' W 003°03'0 0.0
2018-Feb-16 09:30N 43°21' W 003°03'0 0.0
2018-Feb-16 09:00N 43°21' W 003°03'0 0.0
2018-Feb-16 08:27N 43°21' W 003°03'0 0.0
2018-Feb-16 08:00N 43°21' W 003°03'0 0.0
2018-Feb-16 07:30N 43°21' W 003°03'0 0.0
2018-Feb-16 06:57N 43°21' W 003°03'0 0.0
2018-Feb-16 06:30N 43°21' W 003°03'0 0.0
2018-Feb-16 05:57N 43°21' W 003°03'0 0.0
2018-Feb-16 05:30N 43°21' W 003°03'0 0.0
2018-Feb-16 04:54N 43°21' W 003°03'0 0.0
2018-Feb-16 04:30N 43°21' W 003°03'0 0.0
2018-Feb-16 04:00N 43°21' W 003°03'0 0.0
2018-Feb-16 03:30N 43°21' W 003°03'0 0.0
2018-Feb-16 03:00N 43°21' W 003°03'0 0.0
2018-Feb-16 02:30N 43°21' W 003°03'0 0.0
2018-Feb-16 02:00N 43°21' W 003°03'0 0.0
2018-Feb-16 01:30N 43°21' W 003°03'0 0.0
2018-Feb-16 00:57N 43°21' W 003°03'0 0.0
2018-Feb-16 00:24N 43°21' W 003°03'0 0.0
2018-Feb-16 00:00N 43°21' W 003°03'0 0.0
2018-Feb-15 23:30N 43°21' W 003°03'0 0.0
2018-Feb-15 23:00N 43°21' W 003°03'0 0.0
2018-Feb-15 22:30N 43°21' W 003°03'0 0.0
2018-Feb-15 22:00N 43°21' W 003°03'0 0.0
2018-Feb-15 21:30N 43°21' W 003°03'0 0.0
2018-Feb-15 21:00N 43°21' W 003°03'0 0.0
2018-Feb-15 20:30N 43°21' W 003°03'0 0.0
2018-Feb-15 20:00N 43°21' W 003°03'0 0.0
2018-Feb-15 19:27N 43°21' W 003°03'0 0.0
2018-Feb-15 18:57N 43°21' W 003°03'0 0.0
2018-Feb-15 18:27N 43°21' W 003°03'0 0.0
2018-Feb-15 18:00N 43°21' W 003°03'0 0.0
2018-Feb-15 17:24N 43°21' W 003°03'0 0.0
2018-Feb-15 17:00N 43°21' W 003°03'0 0.0
2018-Feb-15 16:30N 43°21' W 003°03'0 0.0
2018-Feb-15 16:00N 43°21' W 003°03'0 0.0
2018-Feb-15 15:27N 43°21' W 003°03'0 0.0
2018-Feb-15 14:57N 43°21' W 003°03'0 0.0
2018-Feb-15 14:27N 43°21' W 003°03'0 0.0
2018-Feb-15 13:48N 43°21' W 003°03'0 0.0
2018-Feb-15 13:27N 43°21' W 003°03'0 0.0
2018-Feb-15 13:00N 43°21' W 003°03'0 0.0
2018-Feb-15 12:27N 43°21' W 003°03'0 0.0
2018-Feb-15 11:54N 43°21' W 003°03'0 0.0
2018-Feb-15 11:27N 43°21' W 003°03'0 0.0
2018-Feb-15 11:00N 43°21' W 003°03'0 0.0
2018-Feb-15 10:30N 43°21' W 003°03'0 0.0
2018-Feb-15 10:00N 43°21' W 003°03'0 0.0
2018-Feb-15 09:30N 43°21' W 003°03'0 0.0
2018-Feb-15 09:00N 43°21' W 003°03'0 0.0
2018-Feb-15 08:30N 43°21' W 003°03'0 0.0
2018-Feb-15 08:00N 43°21' W 003°03'0 0.0
2018-Feb-15 07:30N 43°21' W 003°03'0 0.0
2018-Feb-15 07:00N 43°21' W 003°03'0 0.0
2018-Feb-15 06:30N 43°21' W 003°03'0 0.0
2018-Feb-15 06:00N 43°21' W 003°03'1 1.5
2018-Feb-15 05:30N 43°21' W 003°03'3 6.6
2018-Feb-15 05:00N 43°24' W 003°06'510.0
2018-Feb-15 04:30N 43°28' W 003°08'611.4
2018-Feb-15 03:59N 43°34' W 003°12'612.1
2018-Feb-15 03:30N 43°39' W 003°15'611.6
2018-Feb-15 03:00N 43°45' W 003°18'39012.1
2018-Feb-13 18:55N 49°58' W 005°60'1317.9
2018-Feb-13 18:10N 50°11' W 005°60'417.6
2018-Feb-13 17:58N 50°15' W 006°00'817.2
2018-Feb-13 17:30N 50°23' W 005°60'916.9
2018-Feb-13 16:59N 50°32' W 005°59'916.8
2018-Feb-13 16:29N 50°40' W 005°59'916.7
2018-Feb-13 15:58N 50°49' W 005°59'6717.6
2018-Feb-13 12:11N 51°55' W 005°54'419.7
2018-Feb-13 11:59N 51°59' W 005°54'1019.7
2018-Feb-13 11:30N 52°09' W 005°53'1019.8
2018-Feb-13 11:00N 52°19' W 005°52'1019.4
2018-Feb-13 10:30N 52°28' W 005°51'917.4
2018-Feb-13 10:00N 52°37' W 005°51'816.4
2018-Feb-13 09:30N 52°45' W 005°52'816.9
2018-Feb-13 09:00N 52°54' W 005°53'816.4
2018-Feb-13 08:30N 53°02' W 005°55'816.2
2018-Feb-13 08:00N 53°10' W 005°58'816.3
2018-Feb-13 07:30N 53°17' W 006°02'611.9
2018-Feb-13 07:00N 53°21' W 006°10'1 1.6
2018-Feb-13 06:11N 53°21' W 006°13'0 0.0
2018-Feb-13 05:59N 53°21' W 006°13'0 0.0
2018-Feb-13 05:29N 53°21' W 006°13'0 0.0
2018-Feb-13 04:59N 53°21' W 006°13'0 0.0
2018-Feb-13 04:29N 53°21' W 006°13'0 0.0
2018-Feb-13 03:59N 53°21' W 006°13'0 0.0
2018-Feb-13 03:26N 53°21' W 006°13'0 0.0
2018-Feb-13 02:53N 53°21' W 006°13'0 0.0
2018-Feb-13 02:20N 53°21' W 006°13'0 0.0
2018-Feb-13 01:47N 53°21' W 006°13'0 0.0
2018-Feb-13 01:11N 53°21' W 006°13'0 0.0
2018-Feb-13 00:59N 53°21' W 006°13'0 0.0
2018-Feb-13 00:29N 53°21' W 006°13'0 0.0
2018-Feb-12 23:56N 53°21' W 006°13'0 0.0
2018-Feb-12 23:29N 53°21' W 006°13'0 0.0
2018-Feb-12 22:53N 53°21' W 006°13'0 0.0
2018-Feb-12 22:17N 53°21' W 006°13'0 0.0
2018-Feb-12 21:47N 53°21' W 006°13'0 0.0
2018-Feb-12 21:14N 53°21' W 006°13'0 0.0
2018-Feb-12 20:41N 53°21' W 006°13'0 0.0
2018-Feb-12 20:29N 53°21' W 006°13'0 0.0
2018-Feb-12 19:59N 53°21' W 006°13'0 0.0
2018-Feb-12 19:29N 53°21' W 006°13'0 0.0
2018-Feb-12 18:59N 53°21' W 006°13'0 0.0
2018-Feb-12 18:26N 53°21' W 006°13'0 0.0
2018-Feb-12 17:50N 53°21' W 006°13'0 0.0
2018-Feb-12 17:14N 53°21' W 006°13'0 0.0
2018-Feb-12 16:59N 53°21' W 006°13'0 0.0
2018-Feb-12 16:29N 53°21' W 006°13'0 0.0
2018-Feb-12 15:59N 53°21' W 006°13'0 0.0
2018-Feb-12 15:17N 53°21' W 006°13'0 0.0
2018-Feb-12 14:56N 53°21' W 006°13'0 0.0
2018-Feb-12 14:23N 53°21' W 006°13'0 0.0
2018-Feb-12 13:47N 53°21' W 006°13'0 0.0
2018-Feb-12 13:14N 53°21' W 006°13'0 0.1
2018-Feb-12 12:59N 53°21' W 006°13'0 0.0
2018-Feb-12 12:29N 53°21' W 006°13'0 0.0
2018-Feb-12 11:59N 53°21' W 006°13'0 0.0
2018-Feb-12 11:29N 53°21' W 006°13'0 0.0
2018-Feb-12 10:53N 53°21' W 006°13'0 0.0
2018-Feb-12 10:17N 53°21' W 006°13'0 0.0
2018-Feb-12 09:41N 53°21' W 006°13'0 0.0
2018-Feb-12 09:29N 53°21' W 006°13'0 0.0
2018-Feb-12 08:59N 53°21' W 006°13'0 0.0
2018-Feb-12 08:29N 53°21' W 006°13'0 0.0
2018-Feb-12 07:56N 53°21' W 006°13'0 0.0
2018-Feb-12 07:23N 53°21' W 006°13'0 0.0
2018-Feb-12 07:00N 53°21' W 006°13'0 0.5
2018-Feb-12 06:30N 53°21' W 006°12'510.3
2018-Feb-12 06:00N 53°20' W 006°04'612.1
2018-Feb-12 05:31N 53°14' W 005°60'815.9
2018-Feb-12 05:00N 53°06' W 005°57'816.8
2018-Feb-12 04:30N 52°58' W 005°54'916.8
2018-Feb-12 04:00N 52°50' W 005°52'917.0
2018-Feb-12 03:29N 52°41' W 005°52'817.2
2018-Feb-12 03:00N 52°33' W 005°51'916.7
2018-Feb-12 02:30N 52°24' W 005°50'816.3
2018-Feb-12 02:00N 52°16' W 005°49'815.8
2018-Feb-12 01:30N 52°08' W 005°48'3715.3
2018-Feb-11 23:06N 51°32' W 005°51'2915.7
2018-Feb-11 21:16N 51°03' W 005°52'515.7
2018-Feb-11 20:59N 50°58' W 005°52'815.6
2018-Feb-11 20:30N 50°51' W 005°53'815.4
2018-Feb-11 20:00N 50°43' W 005°53'815.3
2018-Feb-11 19:31N 50°36' W 005°53'815.3
2018-Feb-11 19:00N 50°28' W 005°53'815.6
2018-Feb-11 18:30N 50°20' W 005°53'815.3
2018-Feb-11 18:00N 50°12' W 005°53'814.9
2018-Feb-11 17:27N 50°04' W 005°52'7211.5
2018-Feb-11 11:10N 48°55' W 005°21'212.0
2018-Feb-11 10:58N 48°53' W 005°20'613.1
2018-Feb-11 10:30N 48°49' W 005°27'816.2
2018-Feb-11 10:00N 48°45' W 005°38'813.9
2018-Feb-11 09:27N 48°38' W 005°43'612.6
2018-Feb-11 08:57N 48°31' W 005°42'612.1
2018-Feb-11 08:29N 48°26' W 005°39'612.1
2018-Feb-11 07:59N 48°21' W 005°35'812.0
2018-Feb-11 07:18N 48°13' W 005°30'412.1
2018-Feb-11 06:56N 48°09' W 005°27'511.2
2018-Feb-11 06:30N 48°05' W 005°23'6 9.7
2018-Feb-11 05:51N 47°60' W 005°18'4 9.7
2018-Feb-11 05:29N 47°57' W 005°14'5 9.8
2018-Feb-11 04:59N 47°54' W 005°09'5 9.6
2018-Feb-11 04:30N 47°51' W 005°04'5 9.5
2018-Feb-11 04:01N 47°48' W 004°59'5 9.7
2018-Feb-11 03:30N 47°44' W 004°53'510.1
2018-Feb-11 03:00N 47°41' W 004°47'812.4
2018-Feb-11 02:20N 47°35' W 004°39'512.4
2018-Feb-11 01:54N 47°32' W 004°33'512.6
2018-Feb-11 01:28N 47°28' W 004°27'  

Dump ship's entire track history